sensor_id;sensor_type;location;lat;lon;timestamp;P1;durP1;ratioP1;P2;durP2;ratioP2
8466;SDS011;4270;48.148;11.648;2023-05-16T00:00:13;6.23;;;4.17;;
8466;SDS011;4270;48.148;11.648;2023-05-16T00:02:38;5.00;;;3.70;;
8466;SDS011;4270;48.148;11.648;2023-05-16T00:05:04;5.10;;;4.60;;
8466;SDS011;4270;48.148;11.648;2023-05-16T00:07:32;6.40;;;4.40;;
8466;SDS011;4270;48.148;11.648;2023-05-16T00:09:57;4.93;;;4.50;;
8466;SDS011;4270;48.148;11.648;2023-05-16T00:12:23;6.00;;;4.70;;
8466;SDS011;4270;48.148;11.648;2023-05-16T00:14:48;5.87;;;5.27;;
8466;SDS011;4270;48.148;11.648;2023-05-16T00:17:14;6.07;;;4.47;;
8466;SDS011;4270;48.148;11.648;2023-05-16T00:19:41;5.13;;;4.63;;
8466;SDS011;4270;48.148;11.648;2023-05-16T00:22:08;6.07;;;4.40;;
8466;SDS011;4270;48.148;11.648;2023-05-16T00:24:35;5.93;;;4.77;;
8466;SDS011;4270;48.148;11.648;2023-05-16T00:27:00;5.17;;;4.10;;
8466;SDS011;4270;48.148;11.648;2023-05-16T00:29:25;4.40;;;4.00;;
8466;SDS011;4270;48.148;11.648;2023-05-16T00:31:50;5.50;;;4.80;;
8466;SDS011;4270;48.148;11.648;2023-05-16T00:34:15;5.53;;;5.03;;
8466;SDS011;4270;48.148;11.648;2023-05-16T00:36:41;4.30;;;3.90;;
8466;SDS011;4270;48.148;11.648;2023-05-16T00:39:06;5.00;;;4.60;;
8466;SDS011;4270;48.148;11.648;2023-05-16T00:41:32;5.17;;;4.67;;
8466;SDS011;4270;48.148;11.648;2023-05-16T00:43:57;7.23;;;5.00;;
8466;SDS011;4270;48.148;11.648;2023-05-16T00:46:22;4.97;;;4.40;;
8466;SDS011;4270;48.148;11.648;2023-05-16T00:48:48;4.97;;;4.47;;
8466;SDS011;4270;48.148;11.648;2023-05-16T00:51:13;4.70;;;4.30;;
8466;SDS011;4270;48.148;11.648;2023-05-16T00:53:38;6.87;;;5.97;;
8466;SDS011;4270;48.148;11.648;2023-05-16T00:56:04;5.73;;;4.70;;
8466;SDS011;4270;48.148;11.648;2023-05-16T00:58:30;6.20;;;5.37;;
8466;SDS011;4270;48.148;11.648;2023-05-16T01:00:56;5.77;;;5.27;;
8466;SDS011;4270;48.148;11.648;2023-05-16T01:03:21;6.30;;;4.50;;
8466;SDS011;4270;48.148;11.648;2023-05-16T01:05:46;5.90;;;4.80;;
8466;SDS011;4270;48.148;11.648;2023-05-16T01:08:12;5.57;;;5.07;;
8466;SDS011;4270;48.148;11.648;2023-05-16T01:10:51;6.27;;;5.43;;
8466;SDS011;4270;48.148;11.648;2023-05-16T01:13:21;6.37;;;5.33;;
8466;SDS011;4270;48.148;11.648;2023-05-16T01:18:44;8.30;;;5.57;;
8466;SDS011;4270;48.148;11.648;2023-05-16T01:21:16;4.97;;;4.47;;
8466;SDS011;4270;48.148;11.648;2023-05-16T01:23:56;5.50;;;5.00;;
8466;SDS011;4270;48.148;11.648;2023-05-16T01:26:25;6.73;;;5.30;;
8466;SDS011;4270;48.148;11.648;2023-05-16T01:28:51;5.97;;;4.90;;
8466;SDS011;4270;48.148;11.648;2023-05-16T01:31:16;6.03;;;5.40;;
8466;SDS011;4270;48.148;11.648;2023-05-16T01:33:41;5.60;;;5.10;;
8466;SDS011;4270;48.148;11.648;2023-05-16T01:39:02;5.97;;;5.37;;
8466;SDS011;4270;48.148;11.648;2023-05-16T01:44:16;7.53;;;5.40;;
8466;SDS011;4270;48.148;11.648;2023-05-16T01:46:42;6.37;;;5.77;;
8466;SDS011;4270;48.148;11.648;2023-05-16T01:49:14;7.10;;;5.10;;
8466;SDS011;4270;48.148;11.648;2023-05-16T01:51:57;7.30;;;6.17;;
8466;SDS011;4270;48.148;11.648;2023-05-16T01:54:24;5.97;;;5.47;;
8466;SDS011;4270;48.148;11.648;2023-05-16T01:56:53;7.37;;;5.97;;
8466;SDS011;4270;48.148;11.648;2023-05-16T01:59:20;6.60;;;5.80;;
8466;SDS011;4270;48.148;11.648;2023-05-16T02:01:46;6.63;;;5.93;;
8466;SDS011;4270;48.148;11.648;2023-05-16T02:04:11;8.90;;;6.60;;
8466;SDS011;4270;48.148;11.648;2023-05-16T02:06:39;6.97;;;5.17;;
8466;SDS011;4270;48.148;11.648;2023-05-16T02:09:04;5.80;;;4.90;;
8466;SDS011;4270;48.148;11.648;2023-05-16T02:11:29;6.80;;;5.57;;
8466;SDS011;4270;48.148;11.648;2023-05-16T02:13:54;6.90;;;5.70;;
8466;SDS011;4270;48.148;11.648;2023-05-16T02:16:19;6.72;;;5.30;;
8466;SDS011;4270;48.148;11.648;2023-05-16T02:18:45;6.93;;;5.93;;
8466;SDS011;4270;48.148;11.648;2023-05-16T02:21:10;7.47;;;6.23;;
8466;SDS011;4270;48.148;11.648;2023-05-16T02:23:35;7.00;;;6.10;;
8466;SDS011;4270;48.148;11.648;2023-05-16T02:26:00;8.50;;;6.03;;
8466;SDS011;4270;48.148;11.648;2023-05-16T02:28:26;6.20;;;5.53;;
8466;SDS011;4270;48.148;11.648;2023-05-16T02:30:57;8.13;;;6.33;;
8466;SDS011;4270;48.148;11.648;2023-05-16T02:33:23;6.80;;;5.83;;
8466;SDS011;4270;48.148;11.648;2023-05-16T02:35:48;9.80;;;6.87;;
8466;SDS011;4270;48.148;11.648;2023-05-16T02:38:13;6.53;;;5.90;;
8466;SDS011;4270;48.148;11.648;2023-05-16T02:40:41;6.43;;;5.60;;
8466;SDS011;4270;48.148;11.648;2023-05-16T02:43:06;7.07;;;5.80;;
8466;SDS011;4270;48.148;11.648;2023-05-16T02:45:31;7.77;;;6.27;;
8466;SDS011;4270;48.148;11.648;2023-05-16T02:47:56;6.77;;;6.10;;
8466;SDS011;4270;48.148;11.648;2023-05-16T02:50:22;9.43;;;6.17;;
8466;SDS011;4270;48.148;11.648;2023-05-16T02:52:47;7.40;;;6.10;;
8466;SDS011;4270;48.148;11.648;2023-05-16T02:55:12;6.30;;;5.53;;
8466;SDS011;4270;48.148;11.648;2023-05-16T02:57:37;8.33;;;7.50;;
8466;SDS011;4270;48.148;11.648;2023-05-16T03:00:02;6.73;;;6.03;;
8466;SDS011;4270;48.148;11.648;2023-05-16T03:02:29;7.17;;;6.10;;
8466;SDS011;4270;48.148;11.648;2023-05-16T03:04:55;7.10;;;5.93;;
8466;SDS011;4270;48.148;11.648;2023-05-16T03:07:20;7.17;;;6.10;;
8466;SDS011;4270;48.148;11.648;2023-05-16T03:09:45;7.07;;;6.17;;
8466;SDS011;4270;48.148;11.648;2023-05-16T03:12:10;8.30;;;6.27;;
8466;SDS011;4270;48.148;11.648;2023-05-16T03:14:35;7.20;;;6.50;;
8466;SDS011;4270;48.148;11.648;2023-05-16T03:17:00;8.27;;;6.20;;
8466;SDS011;4270;48.148;11.648;2023-05-16T03:19:26;8.37;;;6.53;;
8466;SDS011;4270;48.148;11.648;2023-05-16T03:21:51;6.67;;;6.00;;
8466;SDS011;4270;48.148;11.648;2023-05-16T03:24:16;9.97;;;7.83;;
8466;SDS011;4270;48.148;11.648;2023-05-16T03:26:41;7.73;;;6.40;;
8466;SDS011;4270;48.148;11.648;2023-05-16T03:29:06;11.93;;;7.20;;
8466;SDS011;4270;48.148;11.648;2023-05-16T03:31:32;7.17;;;6.43;;
8466;SDS011;4270;48.148;11.648;2023-05-16T03:33:57;10.53;;;6.70;;
8466;SDS011;4270;48.148;11.648;2023-05-16T03:36:23;7.37;;;6.17;;
8466;SDS011;4270;48.148;11.648;2023-05-16T03:38:48;9.20;;;7.20;;
8466;SDS011;4270;48.148;11.648;2023-05-16T03:41:13;9.67;;;6.60;;
8466;SDS011;4270;48.148;11.648;2023-05-16T03:43:39;12.10;;;8.00;;
8466;SDS011;4270;48.148;11.648;2023-05-16T03:46:04;8.43;;;6.77;;
8466;SDS011;4270;48.148;11.648;2023-05-16T03:48:29;8.07;;;7.10;;
8466;SDS011;4270;48.148;11.648;2023-05-16T03:50:55;10.37;;;8.20;;
8466;SDS011;4270;48.148;11.648;2023-05-16T03:53:21;8.57;;;7.33;;
8466;SDS011;4270;48.148;11.648;2023-05-16T03:55:46;10.17;;;7.60;;
8466;SDS011;4270;48.148;11.648;2023-05-16T03:58:11;9.00;;;7.37;;
8466;SDS011;4270;48.148;11.648;2023-05-16T04:00:36;9.43;;;7.73;;
8466;SDS011;4270;48.148;11.648;2023-05-16T04:03:01;9.10;;;7.10;;
8466;SDS011;4270;48.148;11.648;2023-05-16T04:05:26;10.70;;;8.43;;
8466;SDS011;4270;48.148;11.648;2023-05-16T04:07:53;9.20;;;7.80;;
8466;SDS011;4270;48.148;11.648;2023-05-16T04:10:18;8.63;;;7.50;;
8466;SDS011;4270;48.148;11.648;2023-05-16T04:12:43;11.30;;;8.17;;
8466;SDS011;4270;48.148;11.648;2023-05-16T04:15:08;8.13;;;7.33;;
8466;SDS011;4270;48.148;11.648;2023-05-16T04:17:34;12.50;;;8.90;;
8466;SDS011;4270;48.148;11.648;2023-05-16T04:19:59;10.53;;;8.67;;
8466;SDS011;4270;48.148;11.648;2023-05-16T04:22:25;12.07;;;9.37;;
8466;SDS011;4270;48.148;11.648;2023-05-16T04:24:50;13.33;;;9.20;;
8466;SDS011;4270;48.148;11.648;2023-05-16T04:27:15;11.17;;;8.60;;
8466;SDS011;4270;48.148;11.648;2023-05-16T04:29:41;13.10;;;9.73;;
8466;SDS011;4270;48.148;11.648;2023-05-16T04:32:06;13.20;;;9.30;;
8466;SDS011;4270;48.148;11.648;2023-05-16T04:34:31;12.40;;;8.53;;
8466;SDS011;4270;48.148;11.648;2023-05-16T04:36:58;13.03;;;9.00;;
8466;SDS011;4270;48.148;11.648;2023-05-16T04:39:23;10.50;;;9.07;;
8466;SDS011;4270;48.148;11.648;2023-05-16T04:41:49;14.23;;;10.03;;
8466;SDS011;4270;48.148;11.648;2023-05-16T04:44:14;11.83;;;9.30;;
8466;SDS011;4270;48.148;11.648;2023-05-16T04:46:39;10.23;;;8.97;;
8466;SDS011;4270;48.148;11.648;2023-05-16T04:49:05;12.87;;;9.53;;
8466;SDS011;4270;48.148;11.648;2023-05-16T04:51:30;12.10;;;8.40;;
8466;SDS011;4270;48.148;11.648;2023-05-16T04:53:57;12.10;;;9.07;;
8466;SDS011;4270;48.148;11.648;2023-05-16T04:56:22;11.47;;;9.53;;
8466;SDS011;4270;48.148;11.648;2023-05-16T04:58:48;11.90;;;9.03;;
8466;SDS011;4270;48.148;11.648;2023-05-16T05:01:13;11.97;;;9.13;;
8466;SDS011;4270;48.148;11.648;2023-05-16T05:03:38;13.20;;;9.80;;
8466;SDS011;4270;48.148;11.648;2023-05-16T05:06:03;13.83;;;10.40;;
8466;SDS011;4270;48.148;11.648;2023-05-16T05:08:29;14.27;;;10.03;;
8466;SDS011;4270;48.148;11.648;2023-05-16T05:10:54;13.13;;;9.30;;
8466;SDS011;4270;48.148;11.648;2023-05-16T05:13:20;12.50;;;9.90;;
8466;SDS011;4270;48.148;11.648;2023-05-16T05:15:45;13.90;;;9.80;;
8466;SDS011;4270;48.148;11.648;2023-05-16T05:18:10;10.70;;;8.80;;
8466;SDS011;4270;48.148;11.648;2023-05-16T05:20:35;10.07;;;9.03;;
8466;SDS011;4270;48.148;11.648;2023-05-16T05:23:01;13.40;;;9.37;;
8466;SDS011;4270;48.148;11.648;2023-05-16T05:25:26;12.80;;;9.40;;
8466;SDS011;4270;48.148;11.648;2023-05-16T05:27:51;13.87;;;9.17;;
8466;SDS011;4270;48.148;11.648;2023-05-16T05:30:17;11.53;;;9.87;;
8466;SDS011;4270;48.148;11.648;2023-05-16T05:32:42;10.00;;;8.93;;
8466;SDS011;4270;48.148;11.648;2023-05-16T05:35:07;15.90;;;10.17;;
8466;SDS011;4270;48.148;11.648;2023-05-16T05:37:32;13.70;;;10.20;;
8466;SDS011;4270;48.148;11.648;2023-05-16T05:39:58;14.73;;;9.97;;
8466;SDS011;4270;48.148;11.648;2023-05-16T05:42:23;15.60;;;11.30;;
8466;SDS011;4270;48.148;11.648;2023-05-16T05:44:48;13.30;;;10.90;;
8466;SDS011;4270;48.148;11.648;2023-05-16T05:47:13;11.20;;;9.13;;
8466;SDS011;4270;48.148;11.648;2023-05-16T05:49:39;14.00;;;9.83;;
8466;SDS011;4270;48.148;11.648;2023-05-16T05:52:04;12.37;;;10.10;;
8466;SDS011;4270;48.148;11.648;2023-05-16T05:54:29;13.20;;;9.53;;
8466;SDS011;4270;48.148;11.648;2023-05-16T05:56:58;15.00;;;9.97;;
8466;SDS011;4270;48.148;11.648;2023-05-16T05:59:23;11.90;;;10.03;;
8466;SDS011;4270;48.148;11.648;2023-05-16T06:01:48;12.27;;;10.43;;
8466;SDS011;4270;48.148;11.648;2023-05-16T06:04:16;14.53;;;10.13;;
8466;SDS011;4270;48.148;11.648;2023-05-16T06:06:42;14.33;;;9.50;;
8466;SDS011;4270;48.148;11.648;2023-05-16T06:09:07;12.48;;;9.88;;
8466;SDS011;4270;48.148;11.648;2023-05-16T06:11:32;15.17;;;10.30;;
8466;SDS011;4270;48.148;11.648;2023-05-16T06:13:57;16.50;;;10.10;;
8466;SDS011;4270;48.148;11.648;2023-05-16T06:16:23;12.10;;;10.00;;
8466;SDS011;4270;48.148;11.648;2023-05-16T06:18:48;14.03;;;9.80;;
8466;SDS011;4270;48.148;11.648;2023-05-16T06:21:13;11.03;;;9.83;;
8466;SDS011;4270;48.148;11.648;2023-05-16T06:23:39;14.30;;;10.10;;
8466;SDS011;4270;48.148;11.648;2023-05-16T06:26:04;10.80;;;9.80;;
8466;SDS011;4270;48.148;11.648;2023-05-16T06:28:29;20.10;;;10.70;;
8466;SDS011;4270;48.148;11.648;2023-05-16T06:30:55;12.37;;;10.13;;
8466;SDS011;4270;48.148;11.648;2023-05-16T06:33:20;11.30;;;10.17;;
8466;SDS011;4270;48.148;11.648;2023-05-16T06:35:45;12.57;;;10.23;;
8466;SDS011;4270;48.148;11.648;2023-05-16T06:38:12;13.50;;;10.33;;
8466;SDS011;4270;48.148;11.648;2023-05-16T06:40:37;13.50;;;10.47;;
8466;SDS011;4270;48.148;11.648;2023-05-16T06:43:02;11.55;;;10.02;;
8466;SDS011;4270;48.148;11.648;2023-05-16T06:45:28;12.40;;;9.87;;
8466;SDS011;4270;48.148;11.648;2023-05-16T06:47:53;14.33;;;9.80;;
8466;SDS011;4270;48.148;11.648;2023-05-16T06:50:19;13.57;;;10.30;;
8466;SDS011;4270;48.148;11.648;2023-05-16T06:52:44;13.97;;;9.73;;
8466;SDS011;4270;48.148;11.648;2023-05-16T06:55:09;14.03;;;10.57;;
8466;SDS011;4270;48.148;11.648;2023-05-16T06:57:34;11.10;;;9.50;;
8466;SDS011;4270;48.148;11.648;2023-05-16T06:59:59;15.13;;;10.03;;
8466;SDS011;4270;48.148;11.648;2023-05-16T07:02:25;12.50;;;9.20;;
8466;SDS011;4270;48.148;11.648;2023-05-16T07:04:50;11.73;;;9.63;;
8466;SDS011;4270;48.148;11.648;2023-05-16T07:07:15;10.63;;;9.40;;
8466;SDS011;4270;48.148;11.648;2023-05-16T07:09:41;11.13;;;9.87;;
8466;SDS011;4270;48.148;11.648;2023-05-16T07:12:06;11.30;;;9.80;;
8466;SDS011;4270;48.148;11.648;2023-05-16T07:14:31;11.67;;;10.47;;
8466;SDS011;4270;48.148;11.648;2023-05-16T07:16:56;12.67;;;10.30;;
8466;SDS011;4270;48.148;11.648;2023-05-16T07:19:22;10.67;;;9.10;;
8466;SDS011;4270;48.148;11.648;2023-05-16T07:21:47;12.77;;;10.23;;
8466;SDS011;4270;48.148;11.648;2023-05-16T07:24:12;13.40;;;10.97;;
8466;SDS011;4270;48.148;11.648;2023-05-16T07:26:37;14.97;;;11.70;;
8466;SDS011;4270;48.148;11.648;2023-05-16T07:29:02;13.30;;;10.63;;
8466;SDS011;4270;48.148;11.648;2023-05-16T07:31:28;12.10;;;10.53;;
8466;SDS011;4270;48.148;11.648;2023-05-16T07:33:53;12.10;;;10.83;;
8466;SDS011;4270;48.148;11.648;2023-05-16T07:36:18;15.93;;;12.00;;
8466;SDS011;4270;48.148;11.648;2023-05-16T07:38:45;12.13;;;10.80;;
8466;SDS011;4270;48.148;11.648;2023-05-16T07:41:10;12.10;;;10.80;;
8466;SDS011;4270;48.148;11.648;2023-05-16T07:43:35;12.97;;;11.30;;
8466;SDS011;4270;48.148;11.648;2023-05-16T07:46:01;14.57;;;11.60;;
8466;SDS011;4270;48.148;11.648;2023-05-16T07:48:26;13.67;;;11.80;;
8466;SDS011;4270;48.148;11.648;2023-05-16T07:50:51;12.63;;;11.07;;
8466;SDS011;4270;48.148;11.648;2023-05-16T07:53:17;15.60;;;11.97;;
8466;SDS011;4270;48.148;11.648;2023-05-16T07:55:42;13.43;;;10.73;;
8466;SDS011;4270;48.148;11.648;2023-05-16T07:58:07;12.10;;;10.80;;
8466;SDS011;4270;48.148;11.648;2023-05-16T08:00:33;14.03;;;11.30;;
8466;SDS011;4270;48.148;11.648;2023-05-16T08:02:58;10.90;;;9.73;;
8466;SDS011;4270;48.148;11.648;2023-05-16T08:05:23;13.57;;;11.10;;
8466;SDS011;4270;48.148;11.648;2023-05-16T08:07:48;14.10;;;11.73;;
8466;SDS011;4270;48.148;11.648;2023-05-16T08:10:13;12.77;;;11.13;;
8466;SDS011;4270;48.148;11.648;2023-05-16T08:12:38;11.83;;;10.43;;
8466;SDS011;4270;48.148;11.648;2023-05-16T08:15:04;13.63;;;11.90;;
8466;SDS011;4270;48.148;11.648;2023-05-16T08:17:29;13.10;;;10.93;;
8466;SDS011;4270;48.148;11.648;2023-05-16T08:19:54;14.77;;;11.20;;
8466;SDS011;4270;48.148;11.648;2023-05-16T08:22:20;13.37;;;11.20;;
8466;SDS011;4270;48.148;11.648;2023-05-16T08:24:45;13.97;;;11.00;;
8466;SDS011;4270;48.148;11.648;2023-05-16T08:27:10;17.27;;;11.07;;
8466;SDS011;4270;48.148;11.648;2023-05-16T08:29:36;15.13;;;11.27;;
8466;SDS011;4270;48.148;11.648;2023-05-16T08:32:02;13.93;;;11.60;;
8466;SDS011;4270;48.148;11.648;2023-05-16T08:34:29;14.17;;;11.67;;
8466;SDS011;4270;48.148;11.648;2023-05-16T08:36:54;13.37;;;11.93;;
8466;SDS011;4270;48.148;11.648;2023-05-16T08:39:19;12.70;;;11.37;;
8466;SDS011;4270;48.148;11.648;2023-05-16T08:41:46;14.67;;;11.27;;
8466;SDS011;4270;48.148;11.648;2023-05-16T08:44:11;12.37;;;10.97;;
8466;SDS011;4270;48.148;11.648;2023-05-16T08:46:37;12.17;;;10.73;;
8466;SDS011;4270;48.148;11.648;2023-05-16T08:49:04;12.30;;;10.43;;
8466;SDS011;4270;48.148;11.648;2023-05-16T08:51:32;14.40;;;12.27;;
8466;SDS011;4270;48.148;11.648;2023-05-16T08:54:01;13.60;;;12.13;;
8466;SDS011;4270;48.148;11.648;2023-05-16T08:56:27;12.87;;;11.57;;
8466;SDS011;4270;48.148;11.648;2023-05-16T08:58:52;12.17;;;10.83;;
8466;SDS011;4270;48.148;11.648;2023-05-16T09:01:19;14.33;;;12.00;;
8466;SDS011;4270;48.148;11.648;2023-05-16T09:03:45;12.00;;;10.37;;
8466;SDS011;4270;48.148;11.648;2023-05-16T09:06:10;11.13;;;10.13;;
8466;SDS011;4270;48.148;11.648;2023-05-16T09:08:35;12.83;;;11.53;;
8466;SDS011;4270;48.148;11.648;2023-05-16T09:11:01;12.43;;;11.23;;
8466;SDS011;4270;48.148;11.648;2023-05-16T09:13:26;11.67;;;10.47;;
8466;SDS011;4270;48.148;11.648;2023-05-16T09:18:53;10.67;;;9.27;;
8466;SDS011;4270;48.148;11.648;2023-05-16T09:21:22;11.33;;;10.23;;
8466;SDS011;4270;48.148;11.648;2023-05-16T09:23:48;10.07;;;9.03;;
8466;SDS011;4270;48.148;11.648;2023-05-16T09:26:13;11.30;;;10.30;;
8466;SDS011;4270;48.148;11.648;2023-05-16T09:28:39;12.53;;;11.33;;
8466;SDS011;4270;48.148;11.648;2023-05-16T09:31:18;11.23;;;10.03;;
8466;SDS011;4270;48.148;11.648;2023-05-16T09:33:43;11.17;;;10.07;;
8466;SDS011;4270;48.148;11.648;2023-05-16T09:36:08;11.40;;;10.30;;
8466;SDS011;4270;48.148;11.648;2023-05-16T09:38:34;10.73;;;9.60;;
8466;SDS011;4270;48.148;11.648;2023-05-16T09:40:59;12.77;;;10.07;;
8466;SDS011;4270;48.148;11.648;2023-05-16T09:43:26;11.20;;;10.20;;
8466;SDS011;4270;48.148;11.648;2023-05-16T09:45:51;11.60;;;10.33;;
8466;SDS011;4270;48.148;11.648;2023-05-16T09:48:18;12.80;;;11.17;;
8466;SDS011;4270;48.148;11.648;2023-05-16T09:50:48;11.60;;;10.50;;
8466;SDS011;4270;48.148;11.648;2023-05-16T09:53:17;12.57;;;11.37;;
8466;SDS011;4270;48.148;11.648;2023-05-16T09:55:48;11.77;;;10.67;;
8466;SDS011;4270;48.148;11.648;2023-05-16T09:58:27;12.00;;;10.90;;
8466;SDS011;4270;48.148;11.648;2023-05-16T10:00:52;12.43;;;11.33;;
8466;SDS011;4270;48.148;11.648;2023-05-16T10:03:17;13.80;;;12.40;;
8466;SDS011;4270;48.148;11.648;2023-05-16T10:05:42;12.27;;;10.97;;
8466;SDS011;4270;48.148;11.648;2023-05-16T10:08:08;13.40;;;12.00;;
8466;SDS011;4270;48.148;11.648;2023-05-16T10:10:34;14.23;;;12.73;;
8466;SDS011;4270;48.148;11.648;2023-05-16T10:13:00;15.40;;;12.90;;
8466;SDS011;4270;48.148;11.648;2023-05-16T10:15:27;16.70;;;14.50;;
8466;SDS011;4270;48.148;11.648;2023-05-16T10:17:53;16.83;;;13.60;;
8466;SDS011;4270;48.148;11.648;2023-05-16T10:20:19;15.30;;;13.70;;
8466;SDS011;4270;48.148;11.648;2023-05-16T10:22:44;25.27;;;21.23;;
8466;SDS011;4270;48.148;11.648;2023-05-16T10:27:36;13.73;;;12.43;;
8466;SDS011;4270;48.148;11.648;2023-05-16T10:30:02;13.93;;;12.53;;
8466;SDS011;4270;48.148;11.648;2023-05-16T10:32:29;15.00;;;13.40;;
8466;SDS011;4270;48.148;11.648;2023-05-16T10:34:55;15.20;;;13.60;;
8466;SDS011;4270;48.148;11.648;2023-05-16T10:37:22;21.20;;;14.10;;
8466;SDS011;4270;48.148;11.648;2023-05-16T10:39:47;15.27;;;13.60;;
8466;SDS011;4270;48.148;11.648;2023-05-16T10:42:12;15.50;;;13.90;;
8466;SDS011;4270;48.148;11.648;2023-05-16T10:44:42;15.93;;;13.93;;
8466;SDS011;4270;48.148;11.648;2023-05-16T10:47:07;16.50;;;14.80;;
8466;SDS011;4270;48.148;11.648;2023-05-16T10:49:32;16.57;;;14.80;;
8466;SDS011;4270;48.148;11.648;2023-05-16T10:52:10;16.33;;;13.20;;
8466;SDS011;4270;48.148;11.648;2023-05-16T10:57:04;16.43;;;14.70;;
8466;SDS011;4270;48.148;11.648;2023-05-16T10:59:31;18.40;;;14.30;;
8466;SDS011;4270;48.148;11.648;2023-05-16T11:02:03;18.60;;;15.30;;
8466;SDS011;4270;48.148;11.648;2023-05-16T11:04:47;17.50;;;14.50;;
8466;SDS011;4270;48.148;11.648;2023-05-16T11:07:12;19.53;;;17.27;;
8466;SDS011;4270;48.148;11.648;2023-05-16T11:09:39;19.50;;;17.10;;
8466;SDS011;4270;48.148;11.648;2023-05-16T11:12:08;18.20;;;14.57;;
8466;SDS011;4270;48.148;11.648;2023-05-16T11:14:35;15.40;;;13.90;;
8466;SDS011;4270;48.148;11.648;2023-05-16T11:17:14;17.27;;;14.60;;
8466;SDS011;4270;48.148;11.648;2023-05-16T11:24:33;16.20;;;14.17;;
8466;SDS011;4270;48.148;11.648;2023-05-16T11:26:59;15.20;;;13.63;;
8466;SDS011;4270;48.148;11.648;2023-05-16T11:29:25;15.50;;;13.90;;
8466;SDS011;4270;48.148;11.648;2023-05-16T11:31:52;13.73;;;12.33;;
8466;SDS011;4270;48.148;11.648;2023-05-16T11:34:17;14.60;;;12.70;;
8466;SDS011;4270;48.148;11.648;2023-05-16T11:36:42;14.90;;;13.30;;
8466;SDS011;4270;48.148;11.648;2023-05-16T11:39:08;16.03;;;13.10;;
8466;SDS011;4270;48.148;11.648;2023-05-16T11:41:34;14.70;;;13.00;;
8466;SDS011;4270;48.148;11.648;2023-05-16T11:43:59;15.43;;;12.70;;
8466;SDS011;4270;48.148;11.648;2023-05-16T11:46:25;15.97;;;12.60;;
8466;SDS011;4270;48.148;11.648;2023-05-16T11:48:51;13.77;;;12.40;;
8466;SDS011;4270;48.148;11.648;2023-05-16T11:51:16;13.27;;;11.87;;
8466;SDS011;4270;48.148;11.648;2023-05-16T11:53:42;12.97;;;11.50;;
8466;SDS011;4270;48.148;11.648;2023-05-16T11:56:08;16.20;;;13.83;;
8466;SDS011;4270;48.148;11.648;2023-05-16T11:58:34;15.73;;;14.10;;
8466;SDS011;4270;48.148;11.648;2023-05-16T12:00:59;16.77;;;14.97;;
8466;SDS011;4270;48.148;11.648;2023-05-16T12:03:28;16.43;;;14.73;;
8466;SDS011;4270;48.148;11.648;2023-05-16T12:05:57;16.73;;;14.10;;
8466;SDS011;4270;48.148;11.648;2023-05-16T12:08:22;63.53;;;48.17;;
8466;SDS011;4270;48.148;11.648;2023-05-16T12:10:49;28.67;;;22.27;;
8466;SDS011;4270;48.148;11.648;2023-05-16T12:13:15;17.50;;;15.80;;
8466;SDS011;4270;48.148;11.648;2023-05-16T12:15:41;16.67;;;14.87;;
8466;SDS011;4270;48.148;11.648;2023-05-16T12:18:07;16.63;;;15.00;;
8466;SDS011;4270;48.148;11.648;2023-05-16T12:20:32;18.20;;;16.30;;
8466;SDS011;4270;48.148;11.648;2023-05-16T12:22:57;18.40;;;16.57;;
8466;SDS011;4270;48.148;11.648;2023-05-16T12:25:26;17.77;;;15.87;;
8466;SDS011;4270;48.148;11.648;2023-05-16T12:27:56;18.50;;;16.50;;
8466;SDS011;4270;48.148;11.648;2023-05-16T12:30:24;18.10;;;16.00;;
8466;SDS011;4270;48.148;11.648;2023-05-16T12:33:00;17.07;;;15.27;;
8466;SDS011;4270;48.148;11.648;2023-05-16T12:35:29;17.00;;;15.30;;
8466;SDS011;4270;48.148;11.648;2023-05-16T12:37:54;17.83;;;15.93;;
8466;SDS011;4270;48.148;11.648;2023-05-16T12:40:20;18.63;;;16.73;;
8466;SDS011;4270;48.148;11.648;2023-05-16T12:42:49;17.17;;;15.53;;
8466;SDS011;4270;48.148;11.648;2023-05-16T12:45:15;17.87;;;16.10;;
8466;SDS011;4270;48.148;11.648;2023-05-16T12:47:44;19.17;;;17.10;;
8466;SDS011;4270;48.148;11.648;2023-05-16T12:50:10;18.20;;;16.40;;
8466;SDS011;4270;48.148;11.648;2023-05-16T12:52:36;18.90;;;16.70;;
8466;SDS011;4270;48.148;11.648;2023-05-16T12:55:01;17.90;;;16.10;;
8466;SDS011;4270;48.148;11.648;2023-05-16T12:57:27;21.87;;;17.60;;
8466;SDS011;4270;48.148;11.648;2023-05-16T12:59:52;19.77;;;17.67;;
8466;SDS011;4270;48.148;11.648;2023-05-16T13:02:17;19.77;;;17.33;;
8466;SDS011;4270;48.148;11.648;2023-05-16T13:04:42;19.60;;;17.00;;
8466;SDS011;4270;48.148;11.648;2023-05-16T13:07:08;18.77;;;16.90;;
8466;SDS011;4270;48.148;11.648;2023-05-16T13:09:33;17.33;;;15.53;;
8466;SDS011;4270;48.148;11.648;2023-05-16T13:11:58;18.77;;;16.87;;
8466;SDS011;4270;48.148;11.648;2023-05-16T13:14:24;19.07;;;16.63;;
8466;SDS011;4270;48.148;11.648;2023-05-16T13:16:49;18.97;;;17.07;;
8466;SDS011;4270;48.148;11.648;2023-05-16T13:19:14;19.50;;;17.60;;
8466;SDS011;4270;48.148;11.648;2023-05-16T13:21:39;18.30;;;16.37;;
8466;SDS011;4270;48.148;11.648;2023-05-16T13:24:06;17.87;;;16.07;;
8466;SDS011;4270;48.148;11.648;2023-05-16T13:26:31;17.53;;;15.73;;
8466;SDS011;4270;48.148;11.648;2023-05-16T13:28:56;19.93;;;17.37;;
8466;SDS011;4270;48.148;11.648;2023-05-16T13:31:21;19.53;;;17.40;;
8466;SDS011;4270;48.148;11.648;2023-05-16T13:33:47;18.63;;;16.60;;
8466;SDS011;4270;48.148;11.648;2023-05-16T13:36:12;18.03;;;16.17;;
8466;SDS011;4270;48.148;11.648;2023-05-16T13:38:37;20.87;;;16.67;;
8466;SDS011;4270;48.148;11.648;2023-05-16T13:41:03;12.87;;;11.53;;
8466;SDS011;4270;48.148;11.648;2023-05-16T13:43:28;9.10;;;8.20;;
8466;SDS011;4270;48.148;11.648;2023-05-16T13:45:53;8.70;;;7.80;;
8466;SDS011;4270;48.148;11.648;2023-05-16T13:48:18;10.50;;;8.27;;
8466;SDS011;4270;48.148;11.648;2023-05-16T13:50:43;9.87;;;8.00;;
8466;SDS011;4270;48.148;11.648;2023-05-16T13:53:09;9.97;;;7.73;;
8466;SDS011;4270;48.148;11.648;2023-05-16T13:55:34;8.10;;;7.37;;
8466;SDS011;4270;48.148;11.648;2023-05-16T13:57:59;16.10;;;12.57;;
8466;SDS011;4270;48.148;11.648;2023-05-16T14:00:24;10.00;;;8.80;;
8466;SDS011;4270;48.148;11.648;2023-05-16T14:02:50;12.77;;;8.13;;
8466;SDS011;4270;48.148;11.648;2023-05-16T14:05:16;9.33;;;8.33;;
8466;SDS011;4270;48.148;11.648;2023-05-16T14:07:41;9.37;;;8.37;;
8466;SDS011;4270;48.148;11.648;2023-05-16T14:10:07;10.17;;;8.33;;
8466;SDS011;4270;48.148;11.648;2023-05-16T14:12:32;9.13;;;7.53;;
8466;SDS011;4270;48.148;11.648;2023-05-16T14:14:57;8.80;;;7.90;;
8466;SDS011;4270;48.148;11.648;2023-05-16T14:17:23;10.90;;;8.30;;
8466;SDS011;4270;48.148;11.648;2023-05-16T14:19:48;10.97;;;8.90;;
8466;SDS011;4270;48.148;11.648;2023-05-16T14:22:13;10.33;;;8.77;;
8466;SDS011;4270;48.148;11.648;2023-05-16T14:24:39;9.70;;;8.63;;
8466;SDS011;4270;48.148;11.648;2023-05-16T14:27:04;10.57;;;8.87;;
8466;SDS011;4270;48.148;11.648;2023-05-16T14:29:29;10.10;;;9.20;;
8466;SDS011;4270;48.148;11.648;2023-05-16T14:31:54;11.40;;;9.60;;
8466;SDS011;4270;48.148;11.648;2023-05-16T14:34:20;11.30;;;9.07;;
8466;SDS011;4270;48.148;11.648;2023-05-16T14:36:46;9.27;;;8.33;;
8466;SDS011;4270;48.148;11.648;2023-05-16T14:39:11;10.23;;;9.23;;
8466;SDS011;4270;48.148;11.648;2023-05-16T14:41:37;9.90;;;8.90;;
8466;SDS011;4270;48.148;11.648;2023-05-16T14:44:02;11.30;;;9.27;;
8466;SDS011;4270;48.148;11.648;2023-05-16T14:46:27;10.03;;;9.03;;
8466;SDS011;4270;48.148;11.648;2023-05-16T14:48:53;12.60;;;11.23;;
8466;SDS011;4270;48.148;11.648;2023-05-16T14:51:18;12.53;;;11.23;;
8466;SDS011;4270;48.148;11.648;2023-05-16T14:53:43;10.50;;;9.50;;
8466;SDS011;4270;48.148;11.648;2023-05-16T14:56:08;10.03;;;9.03;;
8466;SDS011;4270;48.148;11.648;2023-05-16T14:58:33;9.90;;;8.90;;